Mayna, Louisiana
Current Conditions -  °F | °C
As of 2:00 AM on Wednesday 22 Oct 2014 (Local Time) from KESF Reporting Station
Broken Clouds Broken Clouds  
Wind Chill: 57°   Ceiling: 4500
Heat Index: 57°   Visibility: 7mi
Dew Point: 56°   Wind: 0mph
Humidity: 96%   Direction: NA
Pressure: 30.06"   Gusts: NA
Location:  31.5028°N, 91.9028°W
Report Text: KESF 220700Z AUTO 00000KT 7SM BKN045 14/13 A3006 RMK AO2 T01390133
Loading
Personal Weather Stations






























Interactive Weather Map
Tropical Storm Tracking
New forecast layout! Learn more

10-Day Weather Forecast

Advertisements
Track Severe Weather on mobile